Time;durP1;ratioP1;P1;durP2;ratioP2;P2;SDS_P1;SDS_P2;PMS_P1;PMS_P2;Temp;Humidity;BMP_temperature;BMP_pressure;BME280_temperature;BME280_humidity;BME280_pressure;Samples;Min_cycle;Max_cycle;Signal;HPM_P1;HPM_P2
2021/08/03 00:01:03;;;;;;;9.27;6.78;;;16.20;78.70;;;;;;4993497;28;20061;-72
2021/08/03 00:03:39;;;;;;;11.27;6.88;;;16.10;77.90;;;;;;5009459;28;20476;-73
2021/08/03 00:06:12;;;;;;;13.73;6.95;;;16.20;77.80;;;;;;5010807;28;20037;-71
2021/08/03 00:08:57;;;;;;;10.25;7.15;;;16.10;77.90;;;;;;5000902;28;20034;-72
2021/08/03 00:11:25;;;;;;;10.50;7.65;;;16.10;78.30;;;;;;5000937;28;20044;-74
2021/08/03 00:13:51;;;;;;;11.32;7.57;;;16.10;78.80;;;;;;5000816;28;20096;-76
2021/08/03 00:16:18;;;;;;;9.82;6.47;;;16.10;78.90;;;;;;4998122;28;20080;-73
2021/08/03 00:18:45;;;;;;;9.15;6.55;;;16.10;79.00;;;;;;5005630;28;20057;-71
2021/08/03 00:21:11;;;;;;;9.43;6.68;;;16.10;79.20;;;;;;5005169;28;20065;-72
2021/08/03 00:23:41;;;;;;;10.90;7.15;;;16.00;79.40;;;;;;5017055;28;20057;-73
2021/08/03 00:26:10;;;;;;;9.23;6.07;;;16.10;79.50;;;;;;5011954;28;20038;-72
2021/08/03 00:28:36;;;;;;;8.85;6.63;;;16.00;79.60;;;;;;5009584;28;20030;-72
2021/08/03 00:31:02;;;;;;;10.15;6.20;;;16.00;79.50;;;;;;5000732;28;20121;-73
2021/08/03 00:33:28;;;;;;;9.93;6.50;;;16.00;79.40;;;;;;5010559;28;20057;-76
2021/08/03 00:35:54;;;;;;;10.25;7.15;;;16.00;79.40;;;;;;5012226;28;20030;-72
2021/08/03 00:38:19;;;;;;;10.32;7.22;;;15.80;79.50;;;;;;5018337;28;20040;-72
2021/08/03 00:40:55;;;;;;;10.90;7.60;;;15.70;80.10;;;;;;5013702;28;20030;-72
2021/08/03 00:43:21;;;;;;;9.90;6.95;;;15.70;80.30;;;;;;5013022;28;20461;-72
2021/08/03 00:45:47;;;;;;;11.27;7.80;;;15.60;80.70;;;;;;5013480;28;20030;-71
2021/08/03 00:48:12;;;;;;;11.95;8.40;;;15.40;81.60;;;;;;5017151;28;20550;-71
2021/08/03 00:50:38;;;;;;;12.00;8.32;;;15.40;81.90;;;;;;5010674;28;20034;-74
2021/08/03 00:53:04;;;;;;;11.77;7.75;;;15.30;82.00;;;;;;5012166;28;20404;-75
2021/08/03 00:55:30;;;;;;;14.93;7.82;;;15.30;82.20;;;;;;5011814;28;20030;-72
2021/08/03 00:57:56;;;;;;;10.48;7.45;;;15.30;82.40;;;;;;5016646;28;20029;-72
2021/08/03 01:00:22;;;;;;;12.88;7.93;;;15.30;82.40;;;;;;5029842;28;20033;-71
2021/08/03 01:02:48;;;;;;;9.73;7.43;;;15.30;82.60;;;;;;5034348;28;20032;-71
2021/08/03 01:05:14;;;;;;;10.30;7.43;;;15.30;82.50;;;;;;5028355;28;20460;-73
2021/08/03 01:07:48;;;;;;;10.80;7.60;;;15.30;82.50;;;;;;5027026;28;20049;-75
2021/08/03 01:10:34;;;;;;;9.70;7.43;;;15.30;82.40;;;;;;5007912;28;20038;-75
2021/08/03 01:13:05;;;;;;;9.30;6.95;;;15.30;82.30;;;;;;5010957;28;20046;-77
2021/08/03 01:15:51;;;;;;;11.07;7.30;;;15.30;82.10;;;;;;5029254;28;20518;-72
2021/08/03 01:18:23;;;;;;;9.93;7.30;;;15.30;82.10;;;;;;5027890;28;20026;-77
2021/08/03 01:21:38;;;;;;;11.35;7.20;;;15.20;82.20;;;;;;5032111;28;20048;-73
2021/08/03 01:24:16;;;;;;;12.18;7.47;;;15.20;82.30;;;;;;5025968;28;20049;-72
2021/08/03 01:27:01;;;;;;;8.70;6.72;;;15.20;82.30;;;;;;5032157;28;20040;-72
2021/08/03 01:29:27;;;;;;;9.20;6.93;;;15.20;82.30;;;;;;5032883;28;20041;-72
2021/08/03 01:31:59;;;;;;;11.55;6.95;;;15.20;82.10;;;;;;5031188;28;20454;-72
2021/08/03 01:34:29;;;;;;;12.90;7.50;;;15.30;82.20;;;;;;5011192;28;20473;-71
2021/08/03 01:36:56;;;;;;;8.75;7.03;;;15.20;82.10;;;;;;5013941;28;20041;-72
2021/08/03 01:39:35;;;;;;;10.50;7.57;;;15.20;82.50;;;;;;5013995;28;20037;-72
2021/08/03 01:42:02;;;;;;;11.07;7.13;;;15.30;82.50;;;;;;5007967;28;20532;-72
2021/08/03 01:44:30;;;;;;;12.15;7.65;;;15.20;82.60;;;;;;5015450;28;20432;-73
2021/08/03 01:46:57;;;;;;;11.43;7.20;;;15.20;82.70;;;;;;5014284;28;20487;-71
2021/08/03 01:49:24;;;;;;;10.43;7.85;;;15.20;82.80;;;;;;5014357;28;20053;-72
2021/08/03 01:51:51;;;;;;;11.93;7.47;;;15.20;82.90;;;;;;5019677;28;20032;-71
2021/08/03 01:54:17;;;;;;;10.32;7.90;;;15.10;83.10;;;;;;5006940;28;20042;-72
2021/08/03 01:56:44;;;;;;;11.73;7.88;;;15.10;83.30;;;;;;5012224;28;20102;-71
2021/08/03 01:59:11;;;;;;;13.45;8.27;;;15.00;83.90;;;;;;5016854;28;20372;-72
2021/08/03 02:01:39;;;;;;;12.60;7.90;;;14.90;84.20;;;;;;5008038;28;20030;-71
2021/08/03 02:04:06;;;;;;;10.52;7.88;;;14.90;84.20;;;;;;5001335;28;20061;-71
2021/08/03 02:06:32;;;;;;;11.70;7.43;;;15.00;84.00;;;;;;5023767;28;20068;-77
2021/08/03 02:08:59;;;;;;;13.20;7.40;;;15.00;83.60;;;;;;5006259;28;20037;-71
2021/08/03 02:11:29;;;;;;;12.10;7.00;;;15.00;83.20;;;;;;5006722;28;20038;-71
2021/08/03 02:13:56;;;;;;;9.93;7.07;;;15.00;83.00;;;;;;5008066;28;20477;-71
2021/08/03 02:16:21;;;;;;;9.70;6.75;;;15.10;83.10;;;;;;5004856;28;20027;-72
2021/08/03 02:18:47;;;;;;;10.45;7.75;;;15.10;83.20;;;;;;5020489;28;20042;-72
2021/08/03 02:21:23;;;;;;;9.63;7.22;;;15.10;83.20;;;;;;5011582;28;20025;-72
2021/08/03 02:23:50;;;;;;;9.68;6.63;;;15.10;83.10;;;;;;4997963;28;20037;-71
2021/08/03 02:26:16;;;;;;;11.63;8.20;;;15.10;83.00;;;;;;5022993;28;20036;-73
2021/08/03 02:28:42;;;;;;;9.82;7.25;;;15.10;83.00;;;;;;5026763;28;20025;-74
2021/08/03 02:31:28;;;;;;;11.27;7.40;;;15.20;83.10;;;;;;5029969;28;20430;-75
2021/08/03 02:34:07;;;;;;;10.13;6.85;;;15.20;82.90;;;;;;5031414;28;20346;-73
2021/08/03 02:36:48;;;;;;;10.75;7.38;;;15.20;83.00;;;;;;5024100;28;20074;-73
2021/08/03 02:39:16;;;;;;;11.15;7.55;;;15.10;83.00;;;;;;5022776;28;20372;-72
2021/08/03 02:41:43;;;;;;;11.07;7.97;;;15.10;83.20;;;;;;5025468;28;20487;-72
2021/08/03 02:44:11;;;;;;;11.40;8.55;;;15.10;83.40;;;;;;5009615;28;20125;-73
2021/08/03 02:46:40;;;;;;;12.90;8.70;;;15.10;83.50;;;;;;5036551;28;20033;-74
2021/08/03 02:49:08;;;;;;;10.75;8.27;;;15.10;83.30;;;;;;5031479;28;20041;-73
2021/08/03 02:51:37;;;;;;;12.68;9.38;;;15.00;83.40;;;;;;5027181;28;20108;-73
2021/08/03 02:54:14;;;;;;;14.57;9.20;;;14.90;83.70;;;;;;5026551;28;20061;-73
2021/08/03 02:56:41;;;;;;;13.35;9.13;;;14.80;84.00;;;;;;5025582;28;20033;-75
2021/08/03 02:59:10;;;;;;;13.10;8.57;;;14.70;84.40;;;;;;5023495;28;20034;-75
2021/08/03 03:01:39;;;;;;;10.95;9.32;;;14.70;84.50;;;;;;5023705;28;20033;-72
2021/08/03 03:04:36;;;;;;;12.45;9.57;;;14.70;84.60;;;;;;5028946;28;20372;-76
2021/08/03 03:07:12;;;;;;;13.63;9.15;;;14.60;84.60;;;;;;5029468;28;20121;-72
2021/08/03 03:09:40;;;;;;;15.43;10.27;;;14.60;84.80;;;;;;5012514;28;20473;-74
2021/08/03 03:12:07;;;;;;;12.82;9.60;;;14.50;85.20;;;;;;5020359;28;20026;-71
2021/08/03 03:14:39;;;;;;;12.30;9.40;;;14.60;85.10;;;;;;5027039;28;20049;-73
2021/08/03 03:17:06;;;;;;;11.38;8.82;;;14.60;85.20;;;;;;5024857;28;20038;-77
2021/08/03 03:19:35;;;;;;;12.65;9.13;;;14.60;85.10;;;;;;5014695;28;20113;-77
2021/08/03 03:22:06;;;;;;;13.73;10.05;;;14.60;85.10;;;;;;5016190;28;20040;-79
2021/08/03 03:24:34;;;;;;;14.20;9.75;;;14.60;84.90;;;;;;5016233;28;20046;-73
2021/08/03 03:27:02;;;;;;;11.35;8.88;;;14.60;84.80;;;;;;4999007;28;20030;-72
2021/08/03 03:29:28;;;;;;;12.98;9.68;;;14.60;84.70;;;;;;5013202;28;20418;-75
2021/08/03 03:31:55;;;;;;;11.98;8.52;;;14.60;84.80;;;;;;5018014;28;20056;-72
2021/08/03 03:34:23;;;;;;;11.55;9.38;;;14.70;84.80;;;;;;4995329;28;20519;-74
2021/08/03 03:36:50;;;;;;;12.98;9.73;;;14.70;84.70;;;;;;4997601;28;20034;-73
2021/08/03 03:39:16;;;;;;;19.80;10.18;;;14.70;84.70;;;;;;4995532;28;20389;-73
2021/08/03 03:41:46;;;;;;;15.13;9.57;;;14.80;84.60;;;;;;5001210;28;20588;-72
2021/08/03 03:44:12;;;;;;;12.60;9.07;;;14.70;84.30;;;;;;5000635;28;20088;-72
2021/08/03 03:46:54;;;;;;;13.70;9.65;;;14.80;84.30;;;;;;5018653;28;20034;-72
2021/08/03 03:49:29;;;;;;;11.45;9.27;;;14.80;84.30;;;;;;5000480;28;20034;-73
2021/08/03 03:51:57;;;;;;;11.75;9.65;;;14.80;84.40;;;;;;4996477;28;20414;-79
2021/08/03 03:54:29;;;;;;;14.40;10.05;;;14.80;84.30;;;;;;5008512;28;20057;-72
2021/08/03 03:57:03;;;;;;;11.90;9.45;;;14.80;84.30;;;;;;4999958;28;20449;-73
2021/08/03 03:59:29;;;;;;;12.63;9.70;;;14.80;84.50;;;;;;5013479;28;20073;-72
2021/08/03 04:02:03;;;;;;;14.02;9.18;;;14.80;84.50;;;;;;5004662;28;20038;-73
2021/08/03 04:04:30;;;;;;;14.02;10.23;;;14.80;84.50;;;;;;5022083;28;20047;-73
2021/08/03 04:06:58;;;;;;;13.60;9.93;;;14.80;84.40;;;;;;5025416;28;20107;-73
2021/08/03 04:09:24;;;;;;;14.30;9.88;;;14.80;84.10;;;;;;5023770;28;20038;-72
2021/08/03 04:11:52;;;;;;;13.50;10.35;;;14.80;84.20;;;;;;5021837;28;20116;-73
2021/08/03 04:14:27;;;;;;;13.55;10.23;;;14.80;84.20;;;;;;5025364;28;20049;-73
2021/08/03 04:16:55;;;;;;;14.25;10.55;;;14.90;84.20;;;;;;5019285;28;20409;-72
2021/08/03 04:19:21;;;;;;;12.88;9.48;;;14.90;84.10;;;;;;5026196;28;20052;-73
2021/08/03 04:21:47;;;;;;;14.52;10.38;;;14.90;84.00;;;;;;5024867;28;20031;-74
2021/08/03 04:24:16;;;;;;;13.07;9.68;;;14.90;84.10;;;;;;5025248;28;20048;-74
2021/08/03 04:26:43;;;;;;;12.07;9.13;;;14.90;84.20;;;;;;5027259;28;20135;-73
2021/08/03 04:29:08;;;;;;;19.15;9.73;;;14.90;84.20;;;;;;5022573;28;20065;-74
2021/08/03 04:31:34;;;;;;;12.18;9.38;;;15.00;84.30;;;;;;5019901;28;20081;-74
2021/08/03 04:34:00;;;;;;;14.50;9.82;;;14.90;84.30;;;;;;5025813;28;20049;-73
2021/08/03 04:36:26;;;;;;;14.35;10.38;;;14.90;84.50;;;;;;5029099;28;20033;-74
2021/08/03 04:38:51;;;;;;;13.95;9.82;;;14.90;84.50;;;;;;5026018;28;20041;-72
2021/08/03 04:41:17;;;;;;;12.52;8.88;;;14.90;84.70;;;;;;5025078;28;20108;-72
2021/08/03 04:43:43;;;;;;;12.07;8.68;;;15.00;84.90;;;;;;5032848;28;20052;-72
2021/08/03 04:46:10;;;;;;;13.88;9.95;;;15.00;84.90;;;;;;5023281;28;20374;-75
2021/08/03 04:48:36;;;;;;;13.05;10.32;;;15.00;84.80;;;;;;5033580;28;20467;-74
2021/08/03 04:51:01;;;;;;;14.95;9.95;;;15.00;84.80;;;;;;5024493;28;20077;-79
2021/08/03 04:53:27;;;;;;;14.75;10.48;;;15.00;84.90;;;;;;5031212;28;20075;-72
2021/08/03 04:55:53;;;;;;;17.30;10.57;;;15.00;85.00;;;;;;5026027;28;20128;-77
2021/08/03 04:58:18;;;;;;;16.17;11.27;;;14.90;85.10;;;;;;5026396;28;20477;-72
2021/08/03 05:00:44;;;;;;;15.85;11.63;;;14.90;85.40;;;;;;5030198;28;20030;-74
2021/08/03 05:03:11;;;;;;;12.25;9.60;;;14.90;85.60;;;;;;5029163;28;20038;-73
2021/08/03 05:05:37;;;;;;;13.52;9.98;;;14.90;85.60;;;;;;5029802;28;20033;-72
2021/08/03 05:08:04;;;;;;;13.13;10.50;;;14.90;85.50;;;;;;5031180;28;20042;-73
2021/08/03 05:10:30;;;;;;;13.13;10.07;;;15.00;85.70;;;;;;5024304;28;20034;-72
2021/08/03 05:12:56;;;;;;;14.07;11.07;;;15.00;85.50;;;;;;5032624;28;20040;-74
2021/08/03 05:15:22;;;;;;;12.75;9.73;;;15.00;85.40;;;;;;5025162;28;20037;-73
2021/08/03 05:17:48;;;;;;;12.25;9.82;;;15.00;85.40;;;;;;5022001;28;20041;-76
2021/08/03 05:20:14;;;;;;;11.88;9.43;;;15.10;85.30;;;;;;5017702;28;20029;-73
2021/08/03 05:22:41;;;;;;;13.15;10.40;;;15.10;85.30;;;;;;5041859;28;20458;-75
2021/08/03 05:25:07;;;;;;;12.85;10.00;;;15.10;85.30;;;;;;5026125;28;20050;-78
2021/08/03 05:27:33;;;;;;;12.13;9.77;;;15.10;85.20;;;;;;5030750;28;20033;-73
2021/08/03 05:29:58;;;;;;;15.15;11.77;;;15.10;85.10;;;;;;5028107;28;20490;-72
2021/08/03 05:32:24;;;;;;;17.90;10.90;;;15.10;85.00;;;;;;5002757;28;20085;-73
2021/08/03 05:34:50;;;;;;;14.30;9.48;;;15.10;84.90;;;;;;5002704;28;20039;-74
2021/08/03 05:37:16;;;;;;;18.55;11.07;;;15.10;85.00;;;;;;5003120;28;20117;-73
2021/08/03 05:39:41;;;;;;;13.40;10.18;;;15.10;84.90;;;;;;5004179;28;20091;-76
2021/08/03 05:42:07;;;;;;;15.25;10.50;;;15.20;84.80;;;;;;5002601;28;20031;-73
2021/08/03 05:44:33;;;;;;;16.08;10.52;;;15.10;84.70;;;;;;5006599;28;20385;-70
2021/08/03 05:46:59;;;;;;;14.35;10.57;;;15.10;84.50;;;;;;5015165;28;20034;-69
2021/08/03 05:49:26;;;;;;;15.93;10.70;;;15.10;84.80;;;;;;5003629;28;20026;-69
2021/08/03 05:51:52;;;;;;;15.45;11.80;;;15.10;84.70;;;;;;5002184;28;20085;-70
2021/08/03 05:54:17;;;;;;;15.05;10.45;;;15.10;84.80;;;;;;5008422;28;20129;-76
2021/08/03 05:56:43;;;;;;;16.17;10.40;;;15.20;84.70;;;;;;5008629;28;20181;-71
2021/08/03 05:59:09;;;;;;;16.73;10.73;;;15.30;84.30;;;;;;5006985;28;20107;-69
2021/08/03 06:01:34;;;;;;;14.50;10.05;;;15.40;83.90;;;;;;5009598;28;20026;-69
2021/08/03 06:04:01;;;;;;;14.32;10.75;;;15.50;83.70;;;;;;5012617;28;20046;-70
2021/08/03 06:06:27;;;;;;;12.40;10.32;;;15.60;83.10;;;;;;5006964;28;20497;-70
2021/08/03 06:08:55;;;;;;;13.43;10.20;;;15.70;82.80;;;;;;5002916;28;20054;-70
2021/08/03 06:11:25;;;;;;;12.45;9.88;;;15.80;82.20;;;;;;5017650;28;20041;-70
2021/08/03 06:13:58;;;;;;;16.45;11.07;;;16.00;81.90;;;;;;5016321;28;20129;-70
2021/08/03 06:16:26;;;;;;;16.25;10.65;;;16.10;82.10;;;;;;5010992;28;20057;-69
2021/08/03 06:18:55;;;;;;;14.98;11.40;;;16.20;82.00;;;;;;5012371;28;20042;-69
2021/08/03 06:21:21;;;;;;;17.65;11.80;;;16.20;81.40;;;;;;5013376;28;20124;-70
2021/08/03 06:23:49;;;;;;;15.45;10.82;;;16.30;81.30;;;;;;5025743;28;20562;-72
2021/08/03 06:26:19;;;;;;;14.13;10.32;;;16.40;81.20;;;;;;5027452;28;20103;-70
2021/08/03 06:28:48;;;;;;;14.10;10.50;;;16.40;80.40;;;;;;5025668;28;20073;-69
2021/08/03 06:31:15;;;;;;;14.93;11.50;;;16.60;80.80;;;;;;5024249;28;20045;-70
2021/08/03 06:33:41;;;;;;;15.48;11.70;;;16.60;80.50;;;;;;5024486;28;20244;-70
2021/08/03 06:36:06;;;;;;;14.15;11.23;;;16.80;79.80;;;;;;5024391;28;20517;-70
2021/08/03 06:38:32;;;;;;;17.70;11.43;;;16.80;79.60;;;;;;5037036;28;20104;-70
2021/08/03 06:41:19;;;;;;;14.18;10.63;;;16.90;78.70;;;;;;5026255;28;20083;-69
2021/08/03 06:43:52;;;;;;;12.95;10.10;;;17.00;77.50;;;;;;5031749;28;20045;-69
2021/08/03 06:46:19;;;;;;;13.80;10.60;;;16.90;77.00;;;;;;5032015;28;20029;-69
2021/08/03 06:49:06;;;;;;;14.70;11.15;;;16.90;77.50;;;;;;5033607;28;20290;-72
2021/08/03 06:51:37;;;;;;;16.20;11.38;;;16.80;77.80;;;;;;5028819;28;20088;-69
2021/08/03 06:54:05;;;;;;;14.50;10.85;;;16.80;77.30;;;;;;5029045;28;20052;-70
2021/08/03 06:56:53;;;;;;;17.02;11.93;;;16.70;77.30;;;;;;5022273;28;20033;-68
2021/08/03 06:59:26;;;;;;;15.20;10.38;;;16.80;76.60;;;;;;5024878;28;20533;-69
2021/08/03 07:02:16;;;;;;;14.00;9.95;;;17.00;76.40;;;;;;5024648;28;20026;-69
2021/08/03 07:04:54;;;;;;;16.27;11.32;;;17.20;76.00;;;;;;5022901;28;20501;-69
2021/08/03 07:07:20;;;;;;;15.20;10.98;;;17.40;75.00;;;;;;5020905;28;20037;-69
2021/08/03 07:09:46;;;;;;;13.18;10.52;;;17.60;75.40;;;;;;5010143;28;20069;-69
2021/08/03 07:12:13;;;;;;;13.98;10.18;;;17.90;74.10;;;;;;5015804;28;20102;-69
2021/08/03 07:14:39;;;;;;;15.05;10.40;;;18.00;71.60;;;;;;5001559;28;20046;-69
2021/08/03 07:17:07;;;;;;;15.93;10.50;;;18.00;71.40;;;;;;5003706;28;20048;-71
2021/08/03 07:19:33;;;;;;;16.45;11.98;;;17.80;71.80;;;;;;5004404;28;20080;-69
2021/08/03 07:21:59;;;;;;;15.73;11.82;;;17.90;72.60;;;;;;4997739;28;20038;-69
2021/08/03 07:24:25;;;;;;;15.50;11.55;;;18.00;72.40;;;;;;5008744;28;20042;-70
2021/08/03 07:26:51;;;;;;;14.50;10.25;;;18.20;71.10;;;;;;5004014;28;20524;-72
2021/08/03 07:29:16;;;;;;;15.85;11.30;;;18.30;71.00;;;;;;4993841;28;20096;-70
2021/08/03 07:31:42;;;;;;;15.02;10.95;;;18.40;70.60;;;;;;4998090;28;20470;-70
2021/08/03 07:34:09;;;;;;;15.07;10.20;;;18.70;69.60;;;;;;4997122;28;20050;-72
2021/08/03 07:36:36;;;;;;;16.85;11.45;;;19.10;67.70;;;;;;5011086;28;20034;-70
2021/08/03 07:39:04;;;;;;;15.02;10.95;;;19.20;67.10;;;;;;5015972;28;20472;-70
2021/08/03 07:41:31;;;;;;;16.25;10.57;;;19.10;67.70;;;;;;5002675;28;20366;-68
2021/08/03 07:43:57;;;;;;;14.93;10.75;;;19.40;66.90;;;;;;5008586;28;20117;-70
2021/08/03 07:46:23;;;;;;;17.48;10.93;;;19.50;66.80;;;;;;5006107;28;20410;-70
2021/08/03 07:48:51;;;;;;;15.18;10.63;;;19.70;65.60;;;;;;5001768;28;20030;-70
2021/08/03 07:51:18;;;;;;;16.52;11.65;;;19.90;65.40;;;;;;4996229;28;20030;-70
2021/08/03 07:53:44;;;;;;;15.55;11.00;;;20.10;65.40;;;;;;4995347;28;20046;-70
2021/08/03 07:56:14;;;;;;;14.32;10.45;;;20.10;64.40;;;;;;4996357;28;20034;-71
2021/08/03 07:58:40;;;;;;;14.43;10.50;;;20.00;65.20;;;;;;5004342;28;20370;-70
2021/08/03 08:01:06;;;;;;;11.95;9.15;;;20.20;64.10;;;;;;5002698;28;20042;-70
2021/08/03 08:03:33;;;;;;;13.32;9.57;;;20.10;62.80;;;;;;4990177;28;20084;-74
2021/08/03 08:05:59;;;;;;;14.20;10.10;;;19.60;64.80;;;;;;5004071;28;20096;-72
2021/08/03 08:08:25;;;;;;;13.27;10.88;;;19.60;63.50;;;;;;4994324;28;20136;-69
2021/08/03 08:10:50;;;;;;;14.50;9.43;;;19.70;64.60;;;;;;4996472;28;20113;-70
2021/08/03 08:13:16;;;;;;;15.65;8.60;;;19.90;63.70;;;;;;4998437;28;20037;-70
2021/08/03 08:15:42;;;;;;;14.98;7.47;;;19.90;59.40;;;;;;4996618;28;20054;-72
2021/08/03 08:18:11;;;;;;;11.07;4.80;;;20.00;60.20;;;;;;4987888;28;20431;-70
2021/08/03 08:20:37;;;;;;;10.02;5.38;;;20.10;59.90;;;;;;4989079;28;20080;-75
2021/08/03 08:23:04;;;;;;;15.60;7.50;;;20.50;59.20;;;;;;4987349;28;20255;-76
2021/08/03 08:25:30;;;;;;;13.88;7.78;;;20.10;58.80;;;;;;4993030;28;20231;-68
2021/08/03 08:27:55;;;;;;;13.38;7.72;;;20.20;59.20;;;;;;4991184;28;20030;-73
2021/08/03 08:30:21;;;;;;;12.27;8.98;;;20.50;58.10;;;;;;4993618;28;20129;-71
2021/08/03 08:32:47;;;;;;;16.10;10.70;;;20.40;57.90;;;;;;4982212;28;20896;-73
2021/08/03 08:35:12;;;;;;;15.43;10.32;;;20.10;59.90;;;;;;4985315;28;20074;-70
2021/08/03 08:37:38;;;;;;;13.23;8.25;;;20.00;60.00;;;;;;4985972;28;20038;-69
2021/08/03 08:40:06;;;;;;;16.75;9.85;;;20.10;57.00;;;;;;4994284;28;20532;-70
2021/08/03 08:42:33;;;;;;;15.65;10.75;;;20.10;58.80;;;;;;4987343;28;20117;-74
2021/08/03 08:45:00;;;;;;;14.70;9.88;;;20.50;57.80;;;;;;4984133;28;20042;-69
2021/08/03 08:47:27;;;;;;;10.55;6.55;;;21.10;57.40;;;;;;5010936;28;20165;-70
2021/08/03 08:49:53;;;;;;;10.82;6.75;;;21.30;53.60;;;;;;5010712;28;20049;-74
2021/08/03 08:52:18;;;;;;;12.70;6.97;;;21.30;54.00;;;;;;5011465;28;20069;-72
2021/08/03 08:54:44;;;;;;;11.45;6.85;;;21.50;54.20;;;;;;5011093;28;20050;-69
2021/08/03 08:57:10;;;;;;;11.02;7.40;;;21.60;53.10;;;;;;5014700;28;20057;-74
2021/08/03 08:59:36;;;;;;;12.38;7.22;;;21.30;53.60;;;;;;5021507;28;20060;-69
2021/08/03 09:02:03;;;;;;;11.98;7.30;;;21.30;53.20;;;;;;5020402;28;20049;-70
2021/08/03 09:04:29;;;;;;;10.63;6.60;;;21.40;55.80;;;;;;4996181;28;20037;-70
2021/08/03 09:07:06;;;;;;;11.57;6.72;;;21.50;54.50;;;;;;5000508;28;20430;-69
2021/08/03 09:09:43;;;;;;;11.32;6.93;;;21.50;53.30;;;;;;4997350;28;20489;-71
2021/08/03 09:12:10;;;;;;;11.88;7.60;;;21.60;54.80;;;;;;5004657;28;20596;-70
2021/08/03 09:14:39;;;;;;;11.38;6.82;;;21.40;53.50;;;;;;4999522;28;20053;-73
2021/08/03 09:17:05;;;;;;;13.80;6.55;;;21.40;54.00;;;;;;4994885;28;20497;-69
2021/08/03 09:19:34;;;;;;;13.60;6.95;;;21.40;51.90;;;;;;4995329;28;20402;-69
2021/08/03 09:22:11;;;;;;;11.60;6.22;;;21.20;52.80;;;;;;4993483;28;20489;-71
2021/08/03 09:24:37;;;;;;;11.35;6.60;;;21.50;53.40;;;;;;5014517;28;20188;-72
2021/08/03 09:27:03;;;;;;;11.95;7.72;;;21.60;54.60;;;;;;4994973;28;20417;-73
2021/08/03 09:29:43;;;;;;;13.25;7.78;;;21.60;54.70;;;;;;4994681;28;20501;-71
2021/08/03 09:32:09;;;;;;;12.85;6.90;;;21.30;53.30;;;;;;4997424;28;20365;-74
2021/08/03 09:34:34;;;;;;;12.10;7.80;;;21.20;55.30;;;;;;5000403;28;20498;-73
2021/08/03 09:37:00;;;;;;;9.48;6.93;;;21.10;55.40;;;;;;4995205;28;20069;-69
2021/08/03 09:39:44;;;;;;;11.68;8.43;;;21.50;56.60;;;;;;4994368;28;20038;-73
2021/08/03 09:42:16;;;;;;;14.60;8.90;;;21.50;56.00;;;;;;4993422;28;20039;-69
2021/08/03 09:45:15;;;;;;;12.55;8.65;;;21.10;57.10;;;;;;4990928;28;20048;-74
2021/08/03 09:47:40;;;;;;;11.45;7.80;;;20.90;58.40;;;;;;4981571;28;20101;-72
2021/08/03 09:50:09;;;;;;;14.10;8.40;;;20.90;57.20;;;;;;4989523;28;20514;-69
2021/08/03 09:52:40;;;;;;;10.48;6.55;;;20.80;55.40;;;;;;4993869;28;20079;-69
2021/08/03 09:55:19;;;;;;;10.38;5.65;;;20.70;55.90;;;;;;4996937;28;20066;-73
2021/08/03 09:57:47;;;;;;;10.95;6.05;;;21.00;54.90;;;;;;5005629;28;20042;-70
2021/08/03 10:00:36;;;;;;;11.88;4.93;;;21.10;52.50;;;;;;5005281;28;20045;-68
2021/08/03 10:03:05;;;;;;;11.63;5.55;;;21.60;53.50;;;;;;5009572;28;20046;-69
2021/08/03 10:05:31;;;;;;;10.52;5.88;;;21.50;52.70;;;;;;5011050;28;20034;-69
2021/08/03 10:07:58;;;;;;;9.55;6.18;;;21.60;52.30;;;;;;5012175;28;20041;-68
2021/08/03 10:10:24;;;;;;;11.18;6.50;;;21.50;54.00;;;;;;5014674;28;20549;-69
2021/08/03 10:12:49;;;;;;;10.02;6.15;;;21.20;51.10;;;;;;4997581;28;20161;-71
2021/08/03 10:15:15;;;;;;;13.55;8.50;;;21.50;53.20;;;;;;5007949;28;20052;-72
2021/08/03 10:17:41;;;;;;;11.73;7.03;;;21.50;54.70;;;;;;5006790;28;20057;-71
2021/08/03 10:20:10;;;;;;;14.25;7.90;;;21.80;52.80;;;;;;5012596;28;20030;-70
2021/08/03 10:22:41;;;;;;;13.15;7.40;;;22.10;54.60;;;;;;5013648;28;20110;-72
2021/08/03 10:25:12;;;;;;;13.35;8.38;;;21.50;53.90;;;;;;5005320;28;20053;-69
2021/08/03 10:27:40;;;;;;;12.10;8.48;;;21.10;55.40;;;;;;5010933;28;20030;-71
2021/08/03 10:30:06;;;;;;;12.07;7.82;;;21.10;54.80;;;;;;5010937;28;20037;-71
2021/08/03 10:32:39;;;;;;;10.27;7.10;;;21.50;55.30;;;;;;5005605;28;20065;-69
2021/08/03 10:35:06;;;;;;;10.85;7.05;;;21.70;54.30;;;;;;5011277;28;20477;-69
2021/08/03 10:37:57;;;;;;;12.82;8.15;;;21.70;53.40;;;;;;5000928;28;20058;-69
2021/08/03 10:40:44;;;;;;;12.05;6.88;;;21.40;53.90;;;;;;5016225;28;20034;-69
2021/08/03 10:43:17;;;;;;;9.00;6.25;;;21.60;55.00;;;;;;5005042;28;20046;-69
2021/08/03 10:45:43;;;;;;;10.05;5.90;;;22.10;53.90;;;;;;5003480;28;20042;-69
2021/08/03 10:48:09;;;;;;;10.93;6.65;;;22.30;53.00;;;;;;4997886;28;20298;-70
2021/08/03 10:50:35;;;;;;;10.05;7.03;;;22.10;52.60;;;;;;5008964;28;20030;-69
2021/08/03 10:53:03;;;;;;;11.23;7.38;;;21.80;52.20;;;;;;4998127;28;20046;-69
2021/08/03 10:55:38;;;;;;;10.60;6.72;;;21.70;53.10;;;;;;5002686;28;20289;-70
2021/08/03 10:58:10;;;;;;;12.50;7.13;;;22.00;54.30;;;;;;5004495;28;20042;-72
2021/08/03 11:00:46;;;;;;;10.77;6.88;;;21.70;54.20;;;;;;4998935;28;20429;-69
2021/08/03 11:03:30;;;;;;;9.00;6.03;;;21.80;52.60;;;;;;4993375;28;20061;-71
2021/08/03 11:06:19;;;;;;;10.35;5.80;;;21.70;52.90;;;;;;4999506;28;20073;-70
2021/08/03 11:08:47;;;;;;;11.25;5.55;;;21.60;53.90;;;;;;4992993;28;20040;-73
2021/08/03 11:11:20;;;;;;;10.70;5.47;;;21.60;53.50;;;;;;4998923;28;20030;-70
2021/08/03 11:14:06;;;;;;;10.55;5.90;;;21.80;52.90;;;;;;4998511;28;20046;-69
2021/08/03 11:16:32;;;;;;;11.18;5.57;;;21.90;52.00;;;;;;5025339;28;20053;-70
2021/08/03 11:19:01;;;;;;;7.93;4.97;;;21.60;52.40;;;;;;5000697;28;20482;-68
2021/08/03 11:21:29;;;;;;;9.95;4.95;;;21.80;52.90;;;;;;5003218;28;20079;-69
2021/08/03 11:24:17;;;;;;;8.07;4.97;;;21.80;53.00;;;;;;5001698;28;20090;-68
2021/08/03 11:26:54;;;;;;;7.88;4.68;;;22.00;51.10;;;;;;5022085;28;20037;-69
2021/08/03 11:29:25;;;;;;;8.38;4.40;;;21.90;51.20;;;;;;5017576;28;20125;-69
2021/08/03 11:31:58;;;;;;;7.25;4.20;;;22.40;48.80;;;;;;5021085;28;20077;-69
2021/08/03 11:34:25;;;;;;;7.82;4.32;;;22.90;49.60;;;;;;5037280;28;20037;-68
2021/08/03 11:37:12;;;;;;;8.15;4.78;;;23.10;49.80;;;;;;5018202;28;20034;-71
2021/08/03 11:39:45;;;;;;;7.95;4.15;;;23.20;49.30;;;;;;5023315;28;20394;-69
2021/08/03 11:42:12;;;;;;;9.27;4.75;;;23.30;49.80;;;;;;5020644;28;20095;-71
2021/08/03 11:44:39;;;;;;;7.28;4.18;;;23.40;49.80;;;;;;5016091;28;20029;-70
2021/08/03 11:47:08;;;;;;;6.63;3.90;;;23.60;47.50;;;;;;5020109;28;20076;-71
2021/08/03 11:49:46;;;;;;;7.57;3.95;;;23.80;46.30;;;;;;5016022;28;20041;-72
2021/08/03 11:52:20;;;;;;;9.15;4.38;;;23.80;48.10;;;;;;5022467;28;20035;-70
2021/08/03 11:54:56;;;;;;;8.40;4.35;;;23.70;46.30;;;;;;5018278;28;20107;-71
2021/08/03 11:57:43;;;;;;;7.35;4.28;;;23.40;45.50;;;;;;5020506;28;20041;-72
2021/08/03 12:00:11;;;;;;;7.93;3.85;;;23.50;48.40;;;;;;5019839;28;20119;-69
2021/08/03 12:02:38;;;;;;;9.73;3.92;;;23.70;45.00;;;;;;5018522;28;20049;-70
2021/08/03 12:05:19;;;;;;;7.10;3.65;;;23.70;47.30;;;;;;5018269;28;20030;-70
2021/08/03 12:07:48;;;;;;;7.65;3.92;;;24.10;44.70;;;;;;5018245;28;20433;-70
2021/08/03 12:10:13;;;;;;;7.93;3.53;;;24.10;44.90;;;;;;5034002;28;20072;-70
2021/08/03 12:12:44;;;;;;;7.50;3.75;;;24.30;45.70;;;;;;5023835;28;20041;-70
2021/08/03 12:15:13;;;;;;;7.93;3.97;;;24.10;44.80;;;;;;5021301;28;20040;-72
2021/08/03 12:17:39;;;;;;;7.72;3.88;;;23.80;44.20;;;;;;5024799;28;20034;-70
2021/08/03 12:20:21;;;;;;;7.30;3.67;;;23.80;46.20;;;;;;5019522;28;20507;-70
2021/08/03 12:22:47;;;;;;;5.75;3.17;;;24.20;44.20;;;;;;5032378;28;20065;-70
2021/08/03 12:25:12;;;;;;;8.20;3.95;;;24.10;44.60;;;;;;5025179;28;20447;-71
2021/08/03 12:27:44;;;;;;;8.25;3.80;;;24.10;43.30;;;;;;5029346;28;20049;-70
2021/08/03 12:30:31;;;;;;;6.95;3.15;;;23.60;45.00;;;;;;5029362;28;20059;-70
2021/08/03 12:32:57;;;;;;;7.35;3.40;;;23.90;44.10;;;;;;5025190;28;20041;-71
2021/08/03 12:35:22;;;;;;;6.05;3.25;;;23.50;43.60;;;;;;5026304;28;20038;-70
2021/08/03 12:37:48;;;;;;;6.22;3.88;;;23.40;42.90;;;;;;5027293;28;20099;-70
2021/08/03 12:40:46;;;;;;;8.13;3.97;;;23.80;46.50;;;;;;5029628;28;20539;-70
2021/08/03 12:43:12;;;;;;;8.52;3.60;;;24.10;43.70;;;;;;5024589;28;20129;-71
2021/08/03 12:45:40;;;;;;;7.13;3.65;;;24.20;44.90;;;;;;5016734;28;20552;-70
2021/08/03 12:48:08;;;;;;;10.30;4.03;;;24.50;44.00;;;;;;5023695;28;20068;-70